Home > Products > Valid Products > TAF

000
FTUS44 KHGX 281509 AAA
TAFHOU
TAF AMD
KHOU 281509Z 2815/2912 13009KT P6SM VCTS BKN035CB
     FM282300 13007KT P6SM FEW040 BKN250=



000
FTUS44 KHGX 281509 AAA
TAFHOU
TAF AMD
KHOU 281509Z 2815/2912 13009KT P6SM VCTS BKN035CB
     FM282300 13007KT P6SM FEW040 BKN250=



000
FTUS44 KHGX 281408 AAB
TAFLBX
TAF AMD
KLBX 281408Z 2814/2912 VRB05KT P6SM VCTS SCT008 SCT030CB
      TEMPO 2814/2816 VRB08G25KT 1SM -TSRA BKN008CB
     FM281600 13007KT P6SM VCTS SCT030CB BKN120
     FM282000 13010KT P6SM SCT035 SCT250
     FM290100 14006KT P6SM SCT250=



000
FTUS44 KHGX 281408 AAB
TAFLBX
TAF AMD
KLBX 281408Z 2814/2912 VRB05KT P6SM VCTS SCT008 SCT030CB
      TEMPO 2814/2816 VRB08G25KT 1SM -TSRA BKN008CB
     FM281600 13007KT P6SM VCTS SCT030CB BKN120
     FM282000 13010KT P6SM SCT035 SCT250
     FM290100 14006KT P6SM SCT250=



000
FTUS44 KHGX 281237 AAA
TAFLBX
TAF AMD
KLBX 281237Z 2813/2912 VRB05KT P6SM VCTS SCT008 SCT030CB
      TEMPO 2813/2815 4SM -TSRA BKN008CB
     FM281500 13007KT P6SM VCTS SCT030CB BKN120
     FM282000 13010KT P6SM SCT035 SCT250
     FM290100 14006KT P6SM SCT250=



000
FTUS44 KHGX 281237 AAA
TAFLBX
TAF AMD
KLBX 281237Z 2813/2912 VRB05KT P6SM VCTS SCT008 SCT030CB
      TEMPO 2813/2815 4SM -TSRA BKN008CB
     FM281500 13007KT P6SM VCTS SCT030CB BKN120
     FM282000 13010KT P6SM SCT035 SCT250
     FM290100 14006KT P6SM SCT250=



000
FTUS44 KHGX 281120
TAFCLL
TAF
KCLL 281120Z 2812/2912 07004KT P6SM SCT250
     FM281500 11008KT P6SM SCT040 SCT250
     FM282100 14010KT P6SM VCSH BKN040
     FM290200 14005KT P6SM BKN250=



000
FTUS44 KHGX 281120
TAFIAH
TAF
KIAH 281120Z 2812/2918 09006KT P6SM SCT025 SCT250
     FM281500 11008KT P6SM VCSH SCT030 BKN250
     FM281900 12010KT P6SM VCTS BKN040CB
     FM290100 13006KT P6SM BKN250=



000
FTUS44 KHGX 281120
TAFLBX
TAF
KLBX 281120Z 2812/2912 06005KT P6SM VCTS SCT030CB SCT100
      TEMPO 2812/2815 4SM -TSRA BKN030CB
     FM281500 13007KT P6SM VCTS SCT030CB BKN120
     FM282000 13010KT P6SM SCT035 SCT250
     FM290100 14006KT P6SM SCT250=



000
FTUS44 KHGX 281120
TAFSGR
TAF
KSGR 281120Z 2812/2912 09005KT P6SM SCT025 SCT250
     FM281500 12007KT P6SM VCSH SCT035 BKN120
     FM281800 13009KT P6SM VCTS BKN040CB
     FM290000 14007KT P6SM BKN250=



000
FTUS44 KHGX 281120
TAFGLS
TAF
KGLS 281120Z 2812/2912 10010KT P6SM VCTS SCT025CB BKN080
      TEMPO 2812/2815 VRB15G25KT 2SM TSRA BKN020CB
     FM281500 12010KT P6SM VCSH SCT030 BKN120
     FM281900 13012KT P6SM FEW035 BKN250
     FM290800 14008KT P6SM VCSH SCT025 SCT120=



000
FTUS44 KHGX 281120
TAFSGR
TAF
KSGR 281120Z 2812/2912 09005KT P6SM SCT025 SCT250
     FM281500 12007KT P6SM VCSH SCT035 BKN120
     FM281800 13009KT P6SM VCTS BKN040CB
     FM290000 14007KT P6SM BKN250=



000
FTUS44 KHGX 281120
TAFCXO
TAF
KCXO 281120Z 2812/2912 VRB03KT P6SM SCT250
     FM281500 13007KT P6SM SCT035 SCT250
     FM282000 14009KT P6SM VCTS BKN040CB
     FM290100 14005KT P6SM BKN250=



000
FTUS44 KHGX 281120
TAFUTS
TAF
KUTS 281120Z 2812/2912 08004KT P6SM SCT250
     FM281500 12006KT P6SM SCT035 SCT250
     FM282100 14008KT P6SM VCSH SCT050 SCT250
     FM290200 14005KT P6SM BKN250=



000
FTUS44 KHGX 281120
TAFIAH
TAF
KIAH 281120Z 2812/2918 09006KT P6SM SCT025 SCT250
     FM281500 11008KT P6SM VCSH SCT030 BKN250
     FM281900 12010KT P6SM VCTS BKN040CB
     FM290100 13006KT P6SM BKN250=



000
FTUS44 KHGX 281120
TAFHOU
TAF
KHOU 281120Z 2812/2912 10005KT P6SM VCSH SCT025 SCT120
     FM281500 12009KT P6SM VCTS BKN035CB
     FM282300 13007KT P6SM FEW040 BKN250=



000
FTUS44 KHGX 281120
TAFLBX
TAF
KLBX 281120Z 2812/2912 06005KT P6SM VCTS SCT030CB SCT100
      TEMPO 2812/2815 4SM -TSRA BKN030CB
     FM281500 13007KT P6SM VCTS SCT030CB BKN120
     FM282000 13010KT P6SM SCT035 SCT250
     FM290100 14006KT P6SM SCT250=



000
FTUS44 KHGX 281120
TAFCLL
TAF
KCLL 281120Z 2812/2912 07004KT P6SM SCT250
     FM281500 11008KT P6SM SCT040 SCT250
     FM282100 14010KT P6SM VCSH BKN040
     FM290200 14005KT P6SM BKN250=



000
FTUS44 KHGX 281120
TAFGLS
TAF
KGLS 281120Z 2812/2912 10010KT P6SM VCTS SCT025CB BKN080
      TEMPO 2812/2815 VRB15G25KT 2SM TSRA BKN020CB
     FM281500 12010KT P6SM VCSH SCT030 BKN120
     FM281900 13012KT P6SM FEW035 BKN250
     FM290800 14008KT P6SM VCSH SCT025 SCT120=



000
FTUS44 KHGX 281120
TAFUTS
TAF
KUTS 281120Z 2812/2912 08004KT P6SM SCT250
     FM281500 12006KT P6SM SCT035 SCT250
     FM282100 14008KT P6SM VCSH SCT050 SCT250
     FM290200 14005KT P6SM BKN250=



000
FTUS44 KHGX 281120
TAFCXO
TAF
KCXO 281120Z 2812/2912 VRB03KT P6SM SCT250
     FM281500 13007KT P6SM SCT035 SCT250
     FM282000 14009KT P6SM VCTS BKN040CB
     FM290100 14005KT P6SM BKN250=



000
FTUS44 KHGX 281120
TAFHOU
TAF
KHOU 281120Z 2812/2912 10005KT P6SM VCSH SCT025 SCT120
     FM281500 12009KT P6SM VCTS BKN035CB
     FM282300 13007KT P6SM FEW040 BKN250=



000
FTUS44 KHGX 281007 AAB
TAFGLS
TAF AMD
KGLS 281007Z 2810/2906 11010KT P6SM VCTS SCT025CB SCT250
      TEMPO 2810/2812 2SM TSRA BKN020CB
     FM281200 13007KT P6SM VCSH BKN040 BKN150
     FM281800 11008KT P6SM VCTS BKN040CB=



000
FTUS44 KHGX 280903 AAA
TAFIAH
TAF AMD
KIAH 280903Z 2809/2912 07004KT P6SM SCT025 SCT250
     FM281500 10007KT P6SM VCSH SCT035 BKN250
     FM281900 11008KT P6SM VCTS BKN040CB
     FM290300 14005KT P6SM BKN250=



000
FTUS44 KHGX 280903 AAA
TAFIAH
TAF AMD
KIAH 280903Z 2809/2912 07004KT P6SM SCT025 SCT250
     FM281500 10007KT P6SM VCSH SCT035 BKN250
     FM281900 11008KT P6SM VCTS BKN040CB
     FM290300 14005KT P6SM BKN250=



000
FTUS44 KHGX 280831 AAA
TAFHOU
TAF AMD
KHOU 280831Z 2809/2906 08005KT P6SM VCSH SCT025 SCT250
      TEMPO 2809/2812 5SM -SHRA BKN025
     FM281600 13007KT P6SM VCSH SCT040 BKN150
     FM281900 11008KT P6SM VCTS BKN040CB
     FM290300 14005KT P6SM BKN250=



000
FTUS44 KHGX 280745 AAA
TAFLBX
TAF AMD
KLBX 280745Z 2808/2906 03004KT P6SM VCTS SCT030CB SCT250
      TEMPO 2808/2812 4SM -TSRA BKN030CB
     FM281400 13007KT P6SM VCSH SCT040 BKN120
     FM281800 11008KT P6SM VCTS BKN040CB
     FM290300 14005KT P6SM BKN250=



000
FTUS44 KHGX 280745 AAA
TAFLBX
TAF AMD
KLBX 280745Z 2808/2906 03004KT P6SM VCTS SCT030CB SCT250
      TEMPO 2808/2812 4SM -TSRA BKN030CB
     FM281400 13007KT P6SM VCSH SCT040 BKN120
     FM281800 11008KT P6SM VCTS BKN040CB
     FM290300 14005KT P6SM BKN250=



000
FTUS44 KHGX 280744 AAA
TAFGLS
TAF AMD
KGLS 280744Z 2808/2906 11010KT P6SM VCTS SCT025CB SCT250
     FM281200 13007KT P6SM VCSH BKN040 BKN150
     FM281800 11008KT P6SM VCTS BKN040CB=



000
FTUS44 KHGX 280744 AAA
TAFGLS
TAF AMD
KGLS 280744Z 2808/2906 11010KT P6SM VCTS SCT025CB SCT250
     FM281200 13007KT P6SM VCSH BKN040 BKN150
     FM281800 11008KT P6SM VCTS BKN040CB=



000
FTUS44 KHGX 280556
TAFUTS
TAF
KUTS 280556Z 2806/2906 00000KT P6SM SCT250
     FM281500 15007KT P6SM SCT050 BKN120
     FM282000 11008KT P6SM VCSH BKN040
     FM290300 14005KT P6SM BKN250=



000
FTUS44 KHGX 280556
TAFGLS
TAF
KGLS 280556Z 2806/2906 10010KT P6SM SCT025 SCT250
     FM281200 13007KT P6SM VCSH BKN040 BKN150
     FM281800 11008KT P6SM VCTS BKN040CB=



000
FTUS44 KHGX 280556
TAFIAH
TAF
KIAH 280556Z 2806/2912 10005KT P6SM SCT250
     FM281600 13007KT P6SM VCSH BKN040 BKN150
     FM281900 11008KT P6SM VCTS BKN040CB
     FM290300 14005KT P6SM BKN250=



000
FTUS44 KHGX 280556
TAFCLL
TAF
KCLL 280556Z 2806/2906 12004KT P6SM SCT080
     FM281500 15007KT P6SM SCT050 BKN120
     FM282000 11008KT P6SM VCSH BKN040
     FM290300 14005KT P6SM BKN250=



000
FTUS44 KHGX 280556
TAFCXO
TAF
KCXO 280556Z 2806/2906 00000KT P6SM SCT250
     FM281600 15007KT P6SM VCSH SCT040 BKN120
     FM282000 11008KT P6SM VCTS BKN040CB
     FM290300 14005KT P6SM BKN250=



000
FTUS44 KHGX 280556
TAFHOU
TAF
KHOU 280556Z 2806/2906 10004KT P6SM FEW030 SCT250
     FM281600 13007KT P6SM VCSH SCT040 BKN150
     FM281900 11008KT P6SM VCTS BKN040CB
     FM290300 14005KT P6SM BKN250=



000
FTUS44 KHGX 280556
TAFLBX
TAF
KLBX 280556Z 2806/2906 04004KT P6SM SCT250
     FM281400 13007KT P6SM VCSH SCT040 BKN120
     FM281800 11008KT P6SM VCTS BKN040CB
     FM290300 14005KT P6SM BKN250=



000
FTUS44 KHGX 280556
TAFSGR
TAF
KSGR 280556Z 2806/2906 VRB03KT P6SM SCT250
     FM281500 13007KT P6SM VCSH SCT040 BKN120
     FM281900 11008KT P6SM VCTS BKN040CB
     FM290300 14005KT P6SM BKN250=



000
FTUS44 KHGX 280556
TAFSGR
TAF
KSGR 280556Z 2806/2906 VRB03KT P6SM SCT250
     FM281500 13007KT P6SM VCSH SCT040 BKN120
     FM281900 11008KT P6SM VCTS BKN040CB
     FM290300 14005KT P6SM BKN250=



000
FTUS44 KHGX 280556
TAFGLS
TAF
KGLS 280556Z 2806/2906 10010KT P6SM SCT025 SCT250
     FM281200 13007KT P6SM VCSH BKN040 BKN150
     FM281800 11008KT P6SM VCTS BKN040CB=



000
FTUS44 KHGX 280556
TAFCLL
TAF
KCLL 280556Z 2806/2906 12004KT P6SM SCT080
     FM281500 15007KT P6SM SCT050 BKN120
     FM282000 11008KT P6SM VCSH BKN040
     FM290300 14005KT P6SM BKN250=



000
FTUS44 KHGX 280556
TAFLBX
TAF
KLBX 280556Z 2806/2906 04004KT P6SM SCT250
     FM281400 13007KT P6SM VCSH SCT040 BKN120
     FM281800 11008KT P6SM VCTS BKN040CB
     FM290300 14005KT P6SM BKN250=



000
FTUS44 KHGX 280556
TAFUTS
TAF
KUTS 280556Z 2806/2906 00000KT P6SM SCT250
     FM281500 15007KT P6SM SCT050 BKN120
     FM282000 11008KT P6SM VCSH BKN040
     FM290300 14005KT P6SM BKN250=



000
FTUS44 KHGX 280556
TAFHOU
TAF
KHOU 280556Z 2806/2906 10004KT P6SM FEW030 SCT250
     FM281600 13007KT P6SM VCSH SCT040 BKN150
     FM281900 11008KT P6SM VCTS BKN040CB
     FM290300 14005KT P6SM BKN250=



000
FTUS44 KHGX 280556
TAFIAH
TAF
KIAH 280556Z 2806/2912 10005KT P6SM SCT250
     FM281600 13007KT P6SM VCSH BKN040 BKN150
     FM281900 11008KT P6SM VCTS BKN040CB
     FM290300 14005KT P6SM BKN250=



000
FTUS44 KHGX 280556
TAFCXO
TAF
KCXO 280556Z 2806/2906 00000KT P6SM SCT250
     FM281600 15007KT P6SM VCSH SCT040 BKN120
     FM282000 11008KT P6SM VCTS BKN040CB
     FM290300 14005KT P6SM BKN250=



000
FTUS44 KHGX 280252 AAA
TAFHOU
TAF AMD
KHOU 280252Z 2803/2824 07003KT P6SM FEW035 SCT100 BKN260
     FM281500 13007KT P6SM VCSH BKN040 BKN150
     FM281900 11008KT P6SM VCTS BKN040CB=



000
FTUS44 KHGX 280252 AAA
TAFHOU
TAF AMD
KHOU 280252Z 2803/2824 07003KT P6SM FEW035 SCT100 BKN260
     FM281500 13007KT P6SM VCSH BKN040 BKN150
     FM281900 11008KT P6SM VCTS BKN040CB=



000
FTUS44 KHGX 280252 AAA
TAFIAH
TAF AMD
KIAH 280252Z 2803/2906 11007KT P6SM SCT100 SCT250
     FM281500 13007KT P6SM VCSH BKN040 BKN150
     FM281900 11008KT P6SM VCTS BKN040CB
     FM290300 14005KT P6SM BKN250=



000
FTUS44 KHGX 280252 AAA
TAFIAH
TAF AMD
KIAH 280252Z 2803/2906 11007KT P6SM SCT100 SCT250
     FM281500 13007KT P6SM VCSH BKN040 BKN150
     FM281900 11008KT P6SM VCTS BKN040CB
     FM290300 14005KT P6SM BKN250=



000
FTUS44 KHGX 272338
TAFUTS
TAF
KUTS 272338Z 2800/2824 00000KT P6SM FEW090
     FM280300 12004KT P6SM SCT250
     FM281500 15007KT P6SM VCSH BKN050 BKN150=



000
FTUS44 KHGX 272338
TAFCXO
TAF
KCXO 272338Z 2800/2824 14013KT P6SM BKN080
     FM280300 12004KT P6SM SCT250
     FM281500 15007KT P6SM VCSH BKN040 BKN150
     FM282000 11008KT P6SM VCTS BKN040CB=



000
FTUS44 KHGX 272338
TAFUTS
TAF
KUTS 272338Z 2800/2824 00000KT P6SM FEW090
     FM280300 12004KT P6SM SCT250
     FM281500 15007KT P6SM VCSH BKN050 BKN150=



000
FTUS44 KHGX 272338
TAFCLL
TAF
KCLL 272338Z 2800/2824 11010KT P6SM SCT090
     FM280300 12004KT P6SM SCT250
     FM281500 15007KT P6SM VCSH BKN050 BKN150=



000
FTUS44 KHGX 272338
TAFCXO
TAF
KCXO 272338Z 2800/2824 14013KT P6SM BKN080
     FM280300 12004KT P6SM SCT250
     FM281500 15007KT P6SM VCSH BKN040 BKN150
     FM282000 11008KT P6SM VCTS BKN040CB=



000
FTUS44 KHGX 272338
TAFCLL
TAF
KCLL 272338Z 2800/2824 11010KT P6SM SCT090
     FM280300 12004KT P6SM SCT250
     FM281500 15007KT P6SM VCSH BKN050 BKN150=



000
FTUS44 KHGX 272338
TAFLBX
TAF
KLBX 272338Z 2800/2824 08011KT P6SM SKC
     FM280300 10004KT P6SM BKN250
     FM281400 13007KT P6SM VCSH BKN040 BKN150
     FM281800 11008KT P6SM VCTS BKN040CB=



000
FTUS44 KHGX 272338
TAFGLS
TAF
KGLS 272338Z 2800/2824 08012KT P6SM SCT029
     FM281200 13007KT P6SM VCSH BKN040 BKN150
     FM281800 11008KT P6SM VCTS BKN040CB=



000
FTUS44 KHGX 272338
TAFHOU
TAF
KHOU 272338Z 2800/2824 03010KT P6SM VCSH SCT030 BKN170
     FM280100 11005KT P6SM BKN250
     FM281500 13007KT P6SM VCSH BKN040 BKN150
     FM281900 11008KT P6SM VCTS BKN040CB=



000
FTUS44 KHGX 272338
TAFIAH
TAF
KIAH 272338Z 2800/2906 12008KT P6SM FEW060 BKN170 BKN250
     FM280300 13004KT P6SM BKN250
     FM281500 13007KT P6SM VCSH BKN040 BKN150
     FM281900 11008KT P6SM VCTS BKN040CB
     FM290300 14005KT P6SM BKN250=



000
FTUS44 KHGX 272338
TAFSGR
TAF
KSGR 272338Z 2800/2824 10006KT P6SM VCSH SCT090 SCT100
     FM280300 11005KT P6SM BKN250
     FM281500 13007KT P6SM VCSH BKN040 BKN150
     FM281900 11008KT P6SM VCTS BKN040CB=



000
FTUS44 KHGX 272236 AAC
TAFIAH
TAF AMD
KIAH 272236Z 2723/2824 09011KT P6SM BKN035
     FM280300 13004KT P6SM BKN250
     FM281500 13007KT P6SM VCSH BKN040 BKN150=



000
FTUS44 KHGX 272236 AAC
TAFIAH
TAF AMD
KIAH 272236Z 2723/2824 09011KT P6SM BKN035
     FM280300 13004KT P6SM BKN250
     FM281500 13007KT P6SM VCSH BKN040 BKN150=



000
FTUS44 KHGX 272141 AAB
TAFIAH
TAF AMD
KIAH 272141Z 2722/2824 09011KT P6SM VCTS BKN035CB
      TEMPO 2722/2724 VRB15G25KT 2SM TSRA BR BKN030CB
     FM280300 13004KT P6SM BKN250
     FM281500 13007KT P6SM VCSH BKN040 BKN150=



000
FTUS44 KHGX 272055 AAA
TAFIAH
TAF AMD
KIAH 272055Z 2721/2824 09011KT P6SM VCSH SCT050 SCT250
     FM280300 13004KT P6SM BKN250
     FM281500 13007KT P6SM VCSH BKN040 BKN150=



000
FTUS44 KHGX 272055 AAC
TAFHOU
TAF AMD
KHOU 272055Z 2721/2818 08011KT P6SM VCTS SCT040CB BKN250
     FM280100 11005KT P6SM BKN250
     FM281500 13007KT P6SM VCSH BKN040 BKN150=



000
FTUS44 KHGX 272055 AAC
TAFHOU
TAF AMD
KHOU 272055Z 2721/2818 08011KT P6SM VCTS SCT040CB BKN250
     FM280100 11005KT P6SM BKN250
     FM281500 13007KT P6SM VCSH BKN040 BKN150=



000
FTUS44 KHGX 272055 AAA
TAFIAH
TAF AMD
KIAH 272055Z 2721/2824 09011KT P6SM VCSH SCT050 SCT250
     FM280300 13004KT P6SM BKN250
     FM281500 13007KT P6SM VCSH BKN040 BKN150=



000
FTUS44 KHGX 272046 AAA
TAFSGR
TAF AMD
KSGR 272046Z 2721/2818 09011KT P6SM VCSH SCT040 BKN250
      TEMPO 2721/2722 VRB10G22KT 3SM SHRA BKN030
     FM280300 11005KT P6SM BKN250=



000
FTUS44 KHGX 272046 AAA
TAFSGR
TAF AMD
KSGR 272046Z 2721/2818 09011KT P6SM VCSH SCT040 BKN250
      TEMPO 2721/2722 VRB10G22KT 3SM SHRA BKN030
     FM280300 11005KT P6SM BKN250=



000
FTUS44 KHGX 271937 AAA
TAFLBX
TAF AMD
KLBX 271937Z 2720/2818 09013KT P6SM VCTS SCT035CB BKN250
      TEMPO 2720/2724 VRB12G25KT 4SM TSRA BKN030CB
     FM280100 10004KT P6SM BKN250=



000
FTUS44 KHGX 271937 AAA
TAFLBX
TAF AMD
KLBX 271937Z 2720/2818 09013KT P6SM VCTS SCT035CB BKN250
      TEMPO 2720/2724 VRB12G25KT 4SM TSRA BKN030CB
     FM280100 10004KT P6SM BKN250=



000
FTUS44 KHGX 271933 AAB
TAFHOU
TAF AMD
KHOU 271933Z 2720/2818 08011KT P6SM VCTS SCT040CB BKN250
     FM280300 11005KT P6SM BKN250=



000
FTUS44 KHGX 271933 AAB
TAFHOU
TAF AMD
KHOU 271933Z 2720/2818 08011KT P6SM VCTS SCT040CB BKN250
     FM280300 11005KT P6SM BKN250=



000
FTUS44 KHGX 271758 AAA
TAFHOU
TAF AMD
KHOU 271758Z 2718/2818 06013KT P6SM VCSH SCT035 BKN250
     FM271900 09011KT P6SM VCSH SCT040 BKN250
     FM280300 11005KT P6SM BKN250=



000
FTUS44 KHGX 271758 AAA
TAFHOU
TAF AMD
KHOU 271758Z 2718/2818 06013KT P6SM VCSH SCT035 BKN250
     FM271900 09011KT P6SM VCSH SCT040 BKN250
     FM280300 11005KT P6SM BKN250=



000
FTUS44 KHGX 271726 AAA
TAFGLS
TAF AMD
KGLS 271726Z 2717/2818 05013KT P6SM VCTS SCT030CB BKN250
      TEMPO 2718/2722 4SM TSRA BKN030CB
     FM272200 09013KT P6SM VCSH SCT030 BKN250=



000
FTUS44 KHGX 271720
TAFIAH
TAF
KIAH 271720Z 2718/2824 06010KT P6SM SCT035 BKN250
     FM272000 09011KT P6SM VCSH SCT050 SCT250
     FM280300 13004KT P6SM BKN250
     FM281500 13007KT P6SM VCSH BKN040 BKN150=



000
FTUS44 KHGX 271720
TAFGLS
TAF
KGLS 271720Z 2718/2818 05013KT P6SM VCTS SCT030CB BKN250
     FM272000 09013KT P6SM VCSH SCT030 BKN250=



000
FTUS44 KHGX 271720
TAFCLL
TAF
KCLL 271720Z 2718/2818 09008KT P6SM SCT060 SCT250
     FM280300 12004KT P6SM SCT250
     FM281500 15007KT P6SM VCSH BKN050 BKN150=



000
FTUS44 KHGX 271720
TAFCXO
TAF
KCXO 271720Z 2718/2818 10007KT P6SM SCT035 SCT250
     FM280300 12004KT P6SM SCT250
     FM281500 15007KT P6SM VCSH BKN040 BKN150=



000
FTUS44 KHGX 271720
TAFUTS
TAF
KUTS 271720Z 2718/2818 10006KT P6SM SCT060 SCT250
     FM280300 12004KT P6SM SCT250
     FM281500 15007KT P6SM VCSH BKN050 BKN150=



000
FTUS44 KHGX 271720
TAFLBX
TAF
KLBX 271720Z 2718/2818 09011KT P6SM VCTS SCT035CB BKN250
      TEMPO 2718/2722 4SM TSRA BKN030CB
     FM280100 10004KT P6SM BKN250=



000
FTUS44 KHGX 271720
TAFCLL
TAF
KCLL 271720Z 2718/2818 09008KT P6SM SCT060 SCT250
     FM280300 12004KT P6SM SCT250
     FM281500 15007KT P6SM VCSH BKN050 BKN150=



000
FTUS44 KHGX 271720
TAFSGR
TAF
KSGR 271720Z 2718/2818 06009KT P6SM SCT035 BKN250
     FM271900 09011KT P6SM VCSH SCT040 BKN250
     FM280300 11005KT P6SM BKN250=



000
FTUS44 KHGX 271720
TAFHOU
TAF
KHOU 271720Z 2718/2818 06010KT P6SM VCSH SCT035 BKN250
     FM271900 09011KT P6SM VCSH SCT040 BKN250
     FM280300 11005KT P6SM BKN250=



000
FTUS44 KHGX 271720
TAFGLS
TAF
KGLS 271720Z 2718/2818 05013KT P6SM VCTS SCT030CB BKN250
     FM272000 09013KT P6SM VCSH SCT030 BKN250=



000
FTUS44 KHGX 271720
TAFIAH
TAF
KIAH 271720Z 2718/2824 06010KT P6SM SCT035 BKN250
     FM272000 09011KT P6SM VCSH SCT050 SCT250
     FM280300 13004KT P6SM BKN250
     FM281500 13007KT P6SM VCSH BKN040 BKN150=



000
FTUS44 KHGX 271720
TAFCXO
TAF
KCXO 271720Z 2718/2818 10007KT P6SM SCT035 SCT250
     FM280300 12004KT P6SM SCT250
     FM281500 15007KT P6SM VCSH BKN040 BKN150=



000
FTUS44 KHGX 271720
TAFHOU
TAF
KHOU 271720Z 2718/2818 06010KT P6SM VCSH SCT035 BKN250
     FM271900 09011KT P6SM VCSH SCT040 BKN250
     FM280300 11005KT P6SM BKN250=



000
FTUS44 KHGX 271720
TAFUTS
TAF
KUTS 271720Z 2718/2818 10006KT P6SM SCT060 SCT250
     FM280300 12004KT P6SM SCT250
     FM281500 15007KT P6SM VCSH BKN050 BKN150=



000
FTUS44 KHGX 271720
TAFSGR
TAF
KSGR 271720Z 2718/2818 06009KT P6SM SCT035 BKN250
     FM271900 09011KT P6SM VCSH SCT040 BKN250
     FM280300 11005KT P6SM BKN250=



000
FTUS44 KHGX 271720
TAFLBX
TAF
KLBX 271720Z 2718/2818 09011KT P6SM VCTS SCT035CB BKN250
      TEMPO 2718/2722 4SM TSRA BKN030CB
     FM280100 10004KT P6SM BKN250=



000
FTUS44 KHGX 271504 AAA
TAFIAH
TAF AMD
KIAH 271504Z 2715/2818 05008KT P6SM SCT035 BKN250
     FM271900 09011KT P6SM VCSH SCT050 SCT250
     FM280300 13004KT P6SM BKN250=



000
FTUS44 KHGX 271504 AAA
TAFIAH
TAF AMD
KIAH 271504Z 2715/2818 05008KT P6SM SCT035 BKN250
     FM271900 09011KT P6SM VCSH SCT050 SCT250
     FM280300 13004KT P6SM BKN250=



000
FTUS44 KHGX 271504 AAA
TAFHOU
TAF AMD
KHOU 271504Z 2715/2812 06010KT P6SM VCSH SCT035 BKN250
     FM271900 09011KT P6SM VCTS SCT040CB BKN250
     FM280300 11005KT P6SM BKN250=



000
FTUS44 KHGX 271504 AAA
TAFHOU
TAF AMD
KHOU 271504Z 2715/2812 06010KT P6SM VCSH SCT035 BKN250
     FM271900 09011KT P6SM VCTS SCT040CB BKN250
     FM280300 11005KT P6SM BKN250=



000
FTUS44 KHGX 271503 AAB
TAFGLS
TAF AMD
KGLS 271503Z 2715/2812 05013KT P6SM VCTS SCT030CB BKN250
      TEMPO 2715/2718 4SM TSRA BKN030CB
     FM272000 09013KT P6SM VCSH SCT030 BKN250=



000
FTUS44 KHGX 271503 AAB
TAFGLS
TAF AMD
KGLS 271503Z 2715/2812 05013KT P6SM VCTS SCT030CB BKN250
      TEMPO 2715/2718 4SM TSRA BKN030CB
     FM272000 09013KT P6SM VCSH SCT030 BKN250=



000
FTUS44 KHGX 271205 AAA
TAFGLS
TAF AMD
KGLS 271205Z 2712/2812 05013KT P6SM VCTS SCT030CB BKN250
      TEMPO 2712/2715 4SM TSRA BKN030CB
     FM272000 09013KT P6SM VCSH SCT030 BKN250=



000
FTUS44 KHGX 271205 AAA
TAFGLS
TAF AMD
KGLS 271205Z 2712/2812 05013KT P6SM VCTS SCT030CB BKN250
      TEMPO 2712/2715 4SM TSRA BKN030CB
     FM272000 09013KT P6SM VCSH SCT030 BKN250=



000
FTUS44 KHGX 271120
TAFSGR
TAF
KSGR 271120Z 2712/2812 02006KT P6SM SCT100 BKN250
     FM271500 05009KT P6SM SCT035 BKN250
     FM271900 09011KT P6SM VCTS SCT040CB BKN250
     FM280300 11005KT P6SM BKN250=



000
FTUS44 KHGX 271120
TAFCXO
TAF
KCXO 271120Z 2712/2812 VRB03KT P6SM SCT100 BKN250
     FM271500 04006KT P6SM SCT040 SCT250
     FM272000 10007KT P6SM VCSH SCT035 SCT250
     FM280300 12004KT P6SM SCT250=



000
FTUS44 KHGX 271120
TAFUTS
TAF
KUTS 271120Z 2712/2812 VRB03KT P6SM SCT100 BKN250
     FM271500 06005KT P6SM SCT050 SCT250
     FM272000 10006KT P6SM SCT060 SCT250
     FM280300 12004KT P6SM SCT250=



000
FTUS44 KHGX 271120
TAFCLL
TAF
KCLL 271120Z 2712/2812 04005KT P6SM SCT250
     FM271500 06007KT P6SM SCT050 SCT250
     FM272000 09008KT P6SM SCT060 SCT250
     FM280300 12004KT P6SM SCT250=



000
FTUS44 KHGX 271120
TAFCLL
TAF
KCLL 271120Z 2712/2812 04005KT P6SM SCT250
     FM271500 06007KT P6SM SCT050 SCT250
     FM272000 09008KT P6SM SCT060 SCT250
     FM280300 12004KT P6SM SCT250=



000
FTUS44 KHGX 271120
TAFLBX
TAF
KLBX 271120Z 2712/2812 01007KT P6SM SCT050 BKN250
     FM271400 04009KT P6SM VCSH SCT035 BKN250
     FM271900 09011KT P6SM VCTS SCT035CB BKN250
     FM280100 10004KT P6SM BKN250=



000
FTUS44 KHGX 271120
TAFHOU
TAF
KHOU 271120Z 2712/2812 04007KT P6SM SCT100 BKN250
     FM271500 06010KT P6SM VCSH SCT035 BKN250
     FM271900 09011KT P6SM VCTS SCT040CB BKN250
     FM280300 11005KT P6SM BKN250=



000
FTUS44 KHGX 271120
TAFIAH
TAF
KIAH 271120Z 2712/2818 02005KT P6SM SCT100 BKN250
     FM271500 05008KT P6SM SCT035 BKN250
     FM271900 09011KT P6SM VCSH SCT050 SCT250
     FM280300 13004KT P6SM BKN250=



000
FTUS44 KHGX 271120
TAFGLS
TAF
KGLS 271120Z 2712/2812 03011KT P6SM VCSH SCT040 BKN250
     FM271500 05013KT P6SM VCTS SCT030CB BKN250
     FM272000 09013KT P6SM VCSH SCT030 BKN250=



000
FTUS44 KHGX 271120
TAFHOU
TAF
KHOU 271120Z 2712/2812 04007KT P6SM SCT100 BKN250
     FM271500 06010KT P6SM VCSH SCT035 BKN250
     FM271900 09011KT P6SM VCTS SCT040CB BKN250
     FM280300 11005KT P6SM BKN250=



000
FTUS44 KHGX 271120
TAFUTS
TAF
KUTS 271120Z 2712/2812 VRB03KT P6SM SCT100 BKN250
     FM271500 06005KT P6SM SCT050 SCT250
     FM272000 10006KT P6SM SCT060 SCT250
     FM280300 12004KT P6SM SCT250=



000
FTUS44 KHGX 271120
TAFCXO
TAF
KCXO 271120Z 2712/2812 VRB03KT P6SM SCT100 BKN250
     FM271500 04006KT P6SM SCT040 SCT250
     FM272000 10007KT P6SM VCSH SCT035 SCT250
     FM280300 12004KT P6SM SCT250=



000
FTUS44 KHGX 271120
TAFLBX
TAF
KLBX 271120Z 2712/2812 01007KT P6SM SCT050 BKN250
     FM271400 04009KT P6SM VCSH SCT035 BKN250
     FM271900 09011KT P6SM VCTS SCT035CB BKN250
     FM280100 10004KT P6SM BKN250=



000
FTUS44 KHGX 271120
TAFGLS
TAF
KGLS 271120Z 2712/2812 03011KT P6SM VCSH SCT040 BKN250
     FM271500 05013KT P6SM VCTS SCT030CB BKN250
     FM272000 09013KT P6SM VCSH SCT030 BKN250=



000
FTUS44 KHGX 271120
TAFIAH
TAF
KIAH 271120Z 2712/2818 02005KT P6SM SCT100 BKN250
     FM271500 05008KT P6SM SCT035 BKN250
     FM271900 09011KT P6SM VCSH SCT050 SCT250
     FM280300 13004KT P6SM BKN250=



000
FTUS44 KHGX 271120
TAFSGR
TAF
KSGR 271120Z 2712/2812 02006KT P6SM SCT100 BKN250
     FM271500 05009KT P6SM SCT035 BKN250
     FM271900 09011KT P6SM VCTS SCT040CB BKN250
     FM280300 11005KT P6SM BKN250=



000
FTUS44 KHGX 271008 AAA
TAFGLS
TAF AMD
KGLS 271008Z 2710/2806 03010KT P6SM SCT025 SCT250
     FM271200 04011KT P6SM VCSH SCT030 SCT250
     FM271400 10008KT P6SM VCTS SCT030CB
     FM280000 10012KT P6SM BKN250=



000
FTUS44 KHGX 271008 AAA
TAFGLS
TAF AMD
KGLS 271008Z 2710/2806 03010KT P6SM SCT025 SCT250
     FM271200 04011KT P6SM VCSH SCT030 SCT250
     FM271400 10008KT P6SM VCTS SCT030CB
     FM280000 10012KT P6SM BKN250=



000
FTUS44 KHGX 270903 AAA
TAFHOU
TAF AMD
KHOU 270903Z 2709/2806 04004KT P6SM SCT030 SCT250
     FM271400 06008KT P6SM VCSH SCT035 BKN250
     FM271900 09010KT P6SM VCTS SCT035CB BKN250
     FM280300 13004KT P6SM BKN250=



000
FTUS44 KHGX 270903 AAA
TAFHOU
TAF AMD
KHOU 270903Z 2709/2806 04004KT P6SM SCT030 SCT250
     FM271400 06008KT P6SM VCSH SCT035 BKN250
     FM271900 09010KT P6SM VCTS SCT035CB BKN250
     FM280300 13004KT P6SM BKN250=



000
FTUS44 KHGX 270901 AAA
TAFIAH
TAF AMD
KIAH 270901Z 2709/2812 04004KT P6SM SCT035 SCT250
     FM271500 06008KT P6SM VCSH SCT030 BKN250
     FM271900 10010KT P6SM VCTS SCT035CB BKN250
     FM280300 13004KT P6SM BKN250=



000
FTUS44 KHGX 270901 AAA
TAFIAH
TAF AMD
KIAH 270901Z 2709/2812 04004KT P6SM SCT035 SCT250
     FM271500 06008KT P6SM VCSH SCT030 BKN250
     FM271900 10010KT P6SM VCTS SCT035CB BKN250
     FM280300 13004KT P6SM BKN250=



000
FTUS44 KHGX 270521
TAFSGR
TAF
KSGR 270521Z 2706/2806 10004KT P6SM SCT030 SCT250
     FM270800 10004KT P6SM VCSH SCT050
     FM271600 10008KT P6SM VCSH SCT030 SCT250
     FM271800 10008KT P6SM VCTS SCT030CB
     FM280300 13004KT P6SM BKN250=



000
FTUS44 KHGX 270521
TAFIAH
TAF
KIAH 270521Z 2706/2812 11004KT P6SM SCT040 SCT250
     FM270900 10004KT P6SM VCSH SCT035 SCT250
     FM271600 09008KT P6SM VCSH SCT030 SCT250
     FM271900 10008KT P6SM VCTS SCT030CB
     FM280300 13004KT P6SM BKN250=



000
FTUS44 KHGX 270521
TAFCLL
TAF
KCLL 270521Z 2706/2806 10006KT P6SM SCT050 SCT250
     FM271400 08008KT P6SM SCT050 SCT250
     FM272000 10008KT P6SM VCSH SCT030
     FM280300 13004KT P6SM BKN250=



000
FTUS44 KHGX 270521
TAFGLS
TAF
KGLS 270521Z 2706/2806 08011KT P6SM SCT025 SCT250
     FM271200 07010KT P6SM VCSH SCT040 SCT250
     FM271400 10008KT P6SM VCTS SCT030CB
     FM280000 10012KT P6SM BKN250=



000
FTUS44 KHGX 270521
TAFCXO
TAF
KCXO 270521Z 2706/2806 00000KT P6SM SCT050 SCT250
     FM271000 07006KT P6SM VCSH SCT040
     FM272000 10008KT P6SM VCTS SCT030CB
     FM280300 13004KT P6SM BKN250=



000
FTUS44 KHGX 270521
TAFUTS
TAF
KUTS 270521Z 2706/2806 00000KT P6SM SCT050 SCT250
     FM271400 08008KT P6SM SCT050 SCT250
     FM272000 10008KT P6SM VCSH SCT030
     FM280300 13004KT P6SM BKN250=



000
FTUS44 KHGX 270521
TAFLBX
TAF
KLBX 270521Z 2706/2806 VRB03KT P6SM SCT025 SCT250
     FM270800 10006KT P6SM VCSH SCT025 SCT250
     FM271400 10008KT P6SM VCTS SCT030CB
     FM280300 13004KT P6SM BKN250=



000
FTUS44 KHGX 270521
TAFHOU
TAF
KHOU 270521Z 2706/2806 10004KT P6SM SCT025 SCT250
     FM270800 10004KT P6SM VCSH SCT025 SCT250
     FM271600 10008KT P6SM VCSH SCT030 SCT250
     FM271900 10008KT P6SM VCTS SCT030CB
     FM280300 13004KT P6SM BKN250=



000
FTUS44 KHGX 270521
TAFCXO
TAF
KCXO 270521Z 2706/2806 00000KT P6SM SCT050 SCT250
     FM271000 07006KT P6SM VCSH SCT040
     FM272000 10008KT P6SM VCTS SCT030CB
     FM280300 13004KT P6SM BKN250=



000
FTUS44 KHGX 270521
TAFIAH
TAF
KIAH 270521Z 2706/2812 11004KT P6SM SCT040 SCT250
     FM270900 10004KT P6SM VCSH SCT035 SCT250
     FM271600 09008KT P6SM VCSH SCT030 SCT250
     FM271900 10008KT P6SM VCTS SCT030CB
     FM280300 13004KT P6SM BKN250=



000
FTUS44 KHGX 270521
TAFUTS
TAF
KUTS 270521Z 2706/2806 00000KT P6SM SCT050 SCT250
     FM271400 08008KT P6SM SCT050 SCT250
     FM272000 10008KT P6SM VCSH SCT030
     FM280300 13004KT P6SM BKN250=



000
FTUS44 KHGX 270521
TAFCLL
TAF
KCLL 270521Z 2706/2806 10006KT P6SM SCT050 SCT250
     FM271400 08008KT P6SM SCT050 SCT250
     FM272000 10008KT P6SM VCSH SCT030
     FM280300 13004KT P6SM BKN250=



000
FTUS44 KHGX 270521
TAFLBX
TAF
KLBX 270521Z 2706/2806 VRB03KT P6SM SCT025 SCT250
     FM270800 10006KT P6SM VCSH SCT025 SCT250
     FM271400 10008KT P6SM VCTS SCT030CB
     FM280300 13004KT P6SM BKN250=



000
FTUS44 KHGX 270521
TAFSGR
TAF
KSGR 270521Z 2706/2806 10004KT P6SM SCT030 SCT250
     FM270800 10004KT P6SM VCSH SCT050
     FM271600 10008KT P6SM VCSH SCT030 SCT250
     FM271800 10008KT P6SM VCTS SCT030CB
     FM280300 13004KT P6SM BKN250=



000
FTUS44 KHGX 270521
TAFHOU
TAF
KHOU 270521Z 2706/2806 10004KT P6SM SCT025 SCT250
     FM270800 10004KT P6SM VCSH SCT025 SCT250
     FM271600 10008KT P6SM VCSH SCT030 SCT250
     FM271900 10008KT P6SM VCTS SCT030CB
     FM280300 13004KT P6SM BKN250=



000
FTUS44 KHGX 270521
TAFGLS
TAF
KGLS 270521Z 2706/2806 08011KT P6SM SCT025 SCT250
     FM271200 07010KT P6SM VCSH SCT040 SCT250
     FM271400 10008KT P6SM VCTS SCT030CB
     FM280000 10012KT P6SM BKN250=



000
FTUS44 KHGX 270331 AAA
TAFHOU
TAF AMD
KHOU 270331Z 2704/2724 11003KT P6SM FEW030 BKN250
     FM270700 VRB05KT P6SM VCSH SCT050
     FM271600 10008KT P6SM VCSH SCT030 SCT250
     FM271900 10008KT P6SM VCTS SCT030CB=



000
FTUS44 KHGX 270331 AAA
TAFIAH
TAF AMD
KIAH 270331Z 2704/2806 11007KT P6SM FEW030 BKN250
     FM270700 VRB05KT P6SM VCSH SCT050
     FM271600 10008KT P6SM VCSH SCT030 SCT250
     FM271900 10008KT P6SM VCTS SCT030CB
     FM280300 13004KT P6SM BKN250=



000
FTUS44 KHGX 270331 AAA
TAFIAH
TAF AMD
KIAH 270331Z 2704/2806 11007KT P6SM FEW030 BKN250
     FM270700 VRB05KT P6SM VCSH SCT050
     FM271600 10008KT P6SM VCSH SCT030 SCT250
     FM271900 10008KT P6SM VCTS SCT030CB
     FM280300 13004KT P6SM BKN250=



000
FTUS44 KHGX 270331 AAA
TAFHOU
TAF AMD
KHOU 270331Z 2704/2724 11003KT P6SM FEW030 BKN250
     FM270700 VRB05KT P6SM VCSH SCT050
     FM271600 10008KT P6SM VCSH SCT030 SCT250
     FM271900 10008KT P6SM VCTS SCT030CB=



000
FTUS44 KHGX 262331
TAFGLS
TAF
KGLS 262331Z 2700/2724 10012KT P6SM SCT090
     FM270400 VRB06KT P6SM FEW030 SCT250
     FM271200 07010KT P6SM VCSH SCT040 SCT250
     FM271400 10008KT P6SM VCTS SCT030CB=



000
FTUS44 KHGX 262331
TAFSGR
TAF
KSGR 262331Z 2700/2724 11016G24KT P6SM SCT060 BKN070
     FM270300 09004KT P6SM SCT050 SCT150
     FM270700 VRB05KT P6SM VCSH SCT050
     FM271600 10008KT P6SM VCSH SCT030 SCT250
     FM271800 10008KT P6SM VCTS SCT030CB=



000
FTUS44 KHGX 262331
TAFUTS
TAF
KUTS 262331Z 2700/2724 10004KT P6SM SKC
     FM270300 VRB03KT P6SM SCT050 SCT250
     FM271400 08008KT P6SM SCT050 SCT250
     FM272000 10008KT P6SM VCSH SCT030=



000
FTUS44 KHGX 262331
TAFCLL
TAF
KCLL 262331Z 2700/2724 10007KT P6SM FEW070
     FM270400 VRB04KT P6SM FEW060 SCT250
     FM271400 08008KT P6SM SCT050 SCT250
     FM272000 10008KT P6SM VCSH SCT030=



000
FTUS44 KHGX 262331
TAFLBX
TAF
KLBX 262331Z 2700/2724 10007KT P6SM FEW070
     FM270300 04004KT P6SM FEW050 SCT250
     FM270800 10006KT P6SM VCSH SCT040 SCT250
     FM271400 10008KT P6SM VCTS SCT030CB=



000
FTUS44 KHGX 262331
TAFIAH
TAF
KIAH 262331Z 2700/2806 07009G18KT P6SM SCT060 SCT100 BKN250
     FM270700 VRB05KT P6SM VCSH SCT050
     FM271600 10008KT P6SM VCSH SCT030 SCT250
     FM271900 10008KT P6SM VCTS SCT030CB
     FM280300 13004KT P6SM BKN250=



000
FTUS44 KHGX 262331
TAFCXO
TAF
KCXO 262331Z 2700/2724 VRB06KT P6SM SCT050 BKN250
     FM270300 VRB04KT P6SM FEW060 SCT250
     FM271000 07006KT P6SM VCSH SCT040
     FM272000 10008KT P6SM VCTS SCT030CB=



000
FTUS44 KHGX 262331
TAFHOU
TAF
KHOU 262331Z 2700/2724 14003KT P6SM SCT045 BKN080
     FM270300 09004KT P6SM SCT050 SCT150
     FM270700 VRB05KT P6SM VCSH SCT050
     FM271600 10008KT P6SM VCSH SCT030 SCT250
     FM271900 10008KT P6SM VCTS SCT030CB=



000
FTUS44 KHGX 262331
TAFLBX
TAF
KLBX 262331Z 2700/2724 10007KT P6SM FEW070
     FM270300 04004KT P6SM FEW050 SCT250
     FM270800 10006KT P6SM VCSH SCT040 SCT250
     FM271400 10008KT P6SM VCTS SCT030CB=



000
FTUS44 KHGX 262331
TAFSGR
TAF
KSGR 262331Z 2700/2724 11016G24KT P6SM SCT060 BKN070
     FM270300 09004KT P6SM SCT050 SCT150
     FM270700 VRB05KT P6SM VCSH SCT050
     FM271600 10008KT P6SM VCSH SCT030 SCT250
     FM271800 10008KT P6SM VCTS SCT030CB=



000
FTUS44 KHGX 262331
TAFHOU
TAF
KHOU 262331Z 2700/2724 14003KT P6SM SCT045 BKN080
     FM270300 09004KT P6SM SCT050 SCT150
     FM270700 VRB05KT P6SM VCSH SCT050
     FM271600 10008KT P6SM VCSH SCT030 SCT250
     FM271900 10008KT P6SM VCTS SCT030CB=



000
FTUS44 KHGX 262331
TAFIAH
TAF
KIAH 262331Z 2700/2806 07009G18KT P6SM SCT060 SCT100 BKN250
     FM270700 VRB05KT P6SM VCSH SCT050
     FM271600 10008KT P6SM VCSH SCT030 SCT250
     FM271900 10008KT P6SM VCTS SCT030CB
     FM280300 13004KT P6SM BKN250=



000
FTUS44 KHGX 262331
TAFGLS
TAF
KGLS 262331Z 2700/2724 10012KT P6SM SCT090
     FM270400 VRB06KT P6SM FEW030 SCT250
     FM271200 07010KT P6SM VCSH SCT040 SCT250
     FM271400 10008KT P6SM VCTS SCT030CB=



000
FTUS44 KHGX 262331
TAFCXO
TAF
KCXO 262331Z 2700/2724 VRB06KT P6SM SCT050 BKN250
     FM270300 VRB04KT P6SM FEW060 SCT250
     FM271000 07006KT P6SM VCSH SCT040
     FM272000 10008KT P6SM VCTS SCT030CB=



000
FTUS44 KHGX 262331
TAFCLL
TAF
KCLL 262331Z 2700/2724 10007KT P6SM FEW070
     FM270400 VRB04KT P6SM FEW060 SCT250
     FM271400 08008KT P6SM SCT050 SCT250
     FM272000 10008KT P6SM VCSH SCT030=



000
FTUS44 KHGX 262331
TAFUTS
TAF
KUTS 262331Z 2700/2724 10004KT P6SM SKC
     FM270300 VRB03KT P6SM SCT050 SCT250
     FM271400 08008KT P6SM SCT050 SCT250
     FM272000 10008KT P6SM VCSH SCT030=



000
FTUS44 KHGX 262150 AAC
TAFHOU
TAF AMD
KHOU 262150Z 2622/2718 12007KT P6SM VCTS SCT025CB BKN250
      TEMPO 2622/2623 1SM TSRA BR BKN025CB
     FM270300 09004KT P6SM SCT050 SCT150
     FM270700 VRB05KT P6SM VCSH SCT050
     FM271600 10008KT P6SM VCSH SCT030 SCT250=



000
FTUS44 KHGX 262150 AAC
TAFHOU
TAF AMD
KHOU 262150Z 2622/2718 12007KT P6SM VCTS SCT025CB BKN250
      TEMPO 2622/2623 1SM TSRA BR BKN025CB
     FM270300 09004KT P6SM SCT050 SCT150
     FM270700 VRB05KT P6SM VCSH SCT050
     FM271600 10008KT P6SM VCSH SCT030 SCT250=



000
FTUS44 KHGX 262102 AAB
TAFIAH
TAF AMD
KIAH 262102Z 2621/2724 07010G15KT P6SM VCSH SCT050 SCT250
     FM270000 VRB04KT P6SM SCT060 SCT250
     FM270700 VRB05KT P6SM VCSH SCT050
     FM271600 10008KT P6SM VCSH SCT030 SCT250 PROB30 2719/2723 -TSRA
      BKN030CB=



000
FTUS44 KHGX 262102 AAB
TAFIAH
TAF AMD
KIAH 262102Z 2621/2724 07010G15KT P6SM VCSH SCT050 SCT250
     FM270000 VRB04KT P6SM SCT060 SCT250
     FM270700 VRB05KT P6SM VCSH SCT050
     FM271600 10008KT P6SM VCSH SCT030 SCT250 PROB30 2719/2723 -TSRA
      BKN030CB=



000
FTUS44 KHGX 262101 AAA
TAFGLS
TAF AMD
KGLS 262101Z 2621/2718 09011KT P6SM VCTS SCT030CB SCT250
     FM270000 09011KT P6SM SCT030 SCT250
     FM270400 VRB06KT P6SM FEW030 SCT250
     FM271200 07010KT P6SM VCSH SCT040 SCT250=



000
FTUS44 KHGX 262100 AAA
TAFHOU
TAF AMD
KHOU 262100Z 2621/2718 12007KT P6SM BKN050 BKN250
     FM270300 09004KT P6SM SCT050 SCT150
     FM270700 VRB05KT P6SM VCSH SCT050
     FM271600 10008KT P6SM VCSH SCT030 SCT250=



000
FTUS44 KHGX 262100 AAA
TAFHOU
TAF AMD
KHOU 262100Z 2621/2718 12007KT P6SM BKN050 BKN250
     FM270300 09004KT P6SM SCT050 SCT150
     FM270700 VRB05KT P6SM VCSH SCT050
     FM271600 10008KT P6SM VCSH SCT030 SCT250=



000
FTUS44 KHGX 262100 AAB
TAFHOU
TAF AMD
KHOU 262100Z 2621/2718 12007KT P6SM VCTS BKN050CB BKN250
     FM270100 09004KT P6SM SCT050 SCT150
     FM270700 VRB05KT P6SM VCSH SCT050
     FM271600 10008KT P6SM VCSH SCT030 SCT250=



000
FTUS44 KHGX 262100 AAB
TAFHOU
TAF AMD
KHOU 262100Z 2621/2718 12007KT P6SM VCTS BKN050CB BKN250
     FM270100 09004KT P6SM SCT050 SCT150
     FM270700 VRB05KT P6SM VCSH SCT050
     FM271600 10008KT P6SM VCSH SCT030 SCT250=



000
FTUS44 KHGX 262059 AAA
TAFIAH
TAF AMD
KIAH 262059Z 2621/2724 VRB05KT P6SM VCSH SCT050 SCT250
     FM270100 VRB04KT P6SM SCT060 SCT250
     FM270700 VRB05KT P6SM VCSH SCT050
     FM271600 10008KT P6SM VCSH SCT030 SCT250 PROB30 2719/2723 -TSRA
      BKN030CB=



000
FTUS44 KHGX 262059 AAA
TAFIAH
TAF AMD
KIAH 262059Z 2621/2724 VRB05KT P6SM VCSH SCT050 SCT250
     FM270100 VRB04KT P6SM SCT060 SCT250
     FM270700 VRB05KT P6SM VCSH SCT050
     FM271600 10008KT P6SM VCSH SCT030 SCT250 PROB30 2719/2723 -TSRA
      BKN030CB=



000
FTUS44 KHGX 262059 AAA
TAFCLL
TAF AMD
KCLL 262059Z 2621/2718 06010G15KT P6SM SCT060
     FM270000 06009KT P6SM SCT060 SCT250
     FM270400 VRB04KT P6SM FEW060 SCT250
     FM271400 08008KT P6SM SCT050 SCT250=



000
FTUS44 KHGX 262059 AAA
TAFCLL
TAF AMD
KCLL 262059Z 2621/2718 06010G15KT P6SM SCT060
     FM270000 06009KT P6SM SCT060 SCT250
     FM270400 VRB04KT P6SM FEW060 SCT250
     FM271400 08008KT P6SM SCT050 SCT250=



000
FTUS44 KHGX 262058 AAA
TAFCXO
TAF AMD
KCXO 262058Z 2621/2718 11008KT P6SM VCSH SCT050 SCT250
     FM262300 11008KT P6SM SCT050 SCT250
     FM270300 VRB04KT P6SM FEW060 SCT250
     FM271000 07006KT P6SM VCSH SCT040=



000
FTUS44 KHGX 262058 AAA
TAFCXO
TAF AMD
KCXO 262058Z 2621/2718 11008KT P6SM VCSH SCT050 SCT250
     FM262300 11008KT P6SM SCT050 SCT250
     FM270300 VRB04KT P6SM FEW060 SCT250
     FM271000 07006KT P6SM VCSH SCT040=



000
FTUS44 KHGX 261731
TAFCLL
TAF
KCLL 261731Z 2618/2718 03009KT P6SM FEW030 SCT250
     FM262200 09006KT P6SM SCT040 SCT250
     FM270400 VRB04KT P6SM FEW060 SCT250
     FM271400 08008KT P6SM SCT050 SCT250=



000
FTUS44 KHGX 261731
TAFUTS
TAF
KUTS 261731Z 2618/2718 VRB04KT P6SM SCT030
      TEMPO 2618/2620 BKN035
     FM262100 06005KT P6SM SCT050 BKN150
     FM270300 VRB03KT P6SM SCT050 SCT250
     FM271400 08008KT P6SM SCT050 SCT250=



000
FTUS44 KHGX 261731
TAFCXO
TAF
KCXO 261731Z 2618/2718 VRB04KT P6SM FEW040
     FM262100 06007KT P6SM SCT050 SCT250
     FM270300 VRB04KT P6SM FEW060 SCT250
     FM271000 07006KT P6SM VCSH SCT040=



000
FTUS44 KHGX 261731
TAFIAH
TAF
KIAH 261731Z 2618/2724 07007KT P6SM FEW030 SCT060 SCT250
     FM261900 10007KT P6SM VCSH SCT040 SCT250
     FM270100 VRB04KT P6SM SCT060 SCT250
     FM270700 VRB05KT P6SM VCSH SCT050
     FM271600 10008KT P6SM VCSH SCT030 SCT250 PROB30 2719/2723 -TSRA
      BKN030CB=



000
FTUS44 KHGX 261731
TAFHOU
TAF
KHOU 261731Z 2618/2718 03007KT P6SM SCT040 SCT250
     FM270300 09004KT P6SM SCT050 SCT150
     FM270700 VRB05KT P6SM VCSH SCT050
     FM271600 10008KT P6SM VCSH SCT030 SCT250=



000
FTUS44 KHGX 261731
TAFLBX
TAF
KLBX 261731Z 2618/2718 04007KT P6SM VCSH SCT030 SCT250
     FM262200 07008KT P6SM SCT050 SCT250
     FM270300 04004KT P6SM FEW050 SCT250
     FM270800 10006KT P6SM VCSH SCT040 SCT250=



000
FTUS44 KHGX 261731
TAFGLS
TAF
KGLS 261731Z 2618/2718 01011KT P6SM VCSH SCT025
     FM262200 09011KT P6SM SCT030 SCT250
     FM270400 VRB06KT P6SM FEW030 SCT250
     FM271200 07010KT P6SM VCSH SCT040 SCT250=



000
FTUS44 KHGX 261731
TAFSGR
TAF
KSGR 261731Z 2618/2718 36005KT P6SM SCT030 SCT040
     FM270300 09004KT P6SM SCT050 SCT150
     FM270700 VRB05KT P6SM VCSH SCT050
     FM271600 10008KT P6SM VCSH SCT030 SCT250=



000
FTUS44 KHGX 261731
TAFGLS
TAF
KGLS 261731Z 2618/2718 01011KT P6SM VCSH SCT025
     FM262200 09011KT P6SM SCT030 SCT250
     FM270400 VRB06KT P6SM FEW030 SCT250
     FM271200 07010KT P6SM VCSH SCT040 SCT250=



000
FTUS44 KHGX 261731
TAFSGR
TAF
KSGR 261731Z 2618/2718 36005KT P6SM SCT030 SCT040
     FM270300 09004KT P6SM SCT050 SCT150
     FM270700 VRB05KT P6SM VCSH SCT050
     FM271600 10008KT P6SM VCSH SCT030 SCT250=



000
FTUS44 KHGX 261731
TAFHOU
TAF
KHOU 261731Z 2618/2718 03007KT P6SM SCT040 SCT250
     FM270300 09004KT P6SM SCT050 SCT150
     FM270700 VRB05KT P6SM VCSH SCT050
     FM271600 10008KT P6SM VCSH SCT030 SCT250=



000
FTUS44 KHGX 261731
TAFCLL
TAF
KCLL 261731Z 2618/2718 03009KT P6SM FEW030 SCT250
     FM262200 09006KT P6SM SCT040 SCT250
     FM270400 VRB04KT P6SM FEW060 SCT250
     FM271400 08008KT P6SM SCT050 SCT250=



000
FTUS44 KHGX 261731
TAFCXO
TAF
KCXO 261731Z 2618/2718 VRB04KT P6SM FEW040
     FM262100 06007KT P6SM SCT050 SCT250
     FM270300 VRB04KT P6SM FEW060 SCT250
     FM271000 07006KT P6SM VCSH SCT040=



000
FTUS44 KHGX 261731
TAFLBX
TAF
KLBX 261731Z 2618/2718 04007KT P6SM VCSH SCT030 SCT250
     FM262200 07008KT P6SM SCT050 SCT250
     FM270300 04004KT P6SM FEW050 SCT250
     FM270800 10006KT P6SM VCSH SCT040 SCT250=



000
FTUS44 KHGX 261731
TAFUTS
TAF
KUTS 261731Z 2618/2718 VRB04KT P6SM SCT030
      TEMPO 2618/2620 BKN035
     FM262100 06005KT P6SM SCT050 BKN150
     FM270300 VRB03KT P6SM SCT050 SCT250
     FM271400 08008KT P6SM SCT050 SCT250=



000
FTUS44 KHGX 261731
TAFIAH
TAF
KIAH 261731Z 2618/2724 07007KT P6SM FEW030 SCT060 SCT250
     FM261900 10007KT P6SM VCSH SCT040 SCT250
     FM270100 VRB04KT P6SM SCT060 SCT250
     FM270700 VRB05KT P6SM VCSH SCT050
     FM271600 10008KT P6SM VCSH SCT030 SCT250 PROB30 2719/2723 -TSRA
      BKN030CB=



000
FTUS44 KHGX 261507 AAB
TAFIAH
TAF AMD
KIAH 261507Z 2615/2718 07007KT P6SM FEW025 SCT050 BKN150
     FM261900 08011KT P6SM VCSH BKN050 BKN150
     FM270300 09004KT P6SM SCT050 SCT150
     FM271600 06008KT P6SM SCT040 SCT250=



000
FTUS44 KHGX 261507 AAB
TAFIAH
TAF AMD
KIAH 261507Z 2615/2718 07007KT P6SM FEW025 SCT050 BKN150
     FM261900 08011KT P6SM VCSH BKN050 BKN150
     FM270300 09004KT P6SM SCT050 SCT150
     FM271600 06008KT P6SM SCT040 SCT250=



000
FTUS44 KHGX 261507 AAA
TAFHOU
TAF AMD
KHOU 261507Z 2615/2712 07010KT P6SM FEW040 SCT150
     FM261800 08011KT P6SM VCSH BKN050 BKN150
     FM270300 09004KT P6SM SCT050 SCT150=



000
FTUS44 KHGX 261507 AAA
TAFHOU
TAF AMD
KHOU 261507Z 2615/2712 07010KT P6SM FEW040 SCT150
     FM261800 08011KT P6SM VCSH BKN050 BKN150
     FM270300 09004KT P6SM SCT050 SCT150=



000
FTUS44 KHGX 261505 AAA
TAFIAH
TAF AMD
KIAH 261505Z 2615/2718 07010KT P6SM BKN040 BKN100
     FM261900 08011KT P6SM VCSH BKN050 BKN150
     FM270300 09004KT P6SM SCT050 SCT150
     FM271600 06008KT P6SM SCT040 SCT250=



000
FTUS44 KHGX 261505 AAA
TAFIAH
TAF AMD
KIAH 261505Z 2615/2718 07010KT P6SM BKN040 BKN100
     FM261900 08011KT P6SM VCSH BKN050 BKN150
     FM270300 09004KT P6SM SCT050 SCT150
     FM271600 06008KT P6SM SCT040 SCT250=



000
FTUS44 KHGX 261212 AAA
TAFCLL
TAF AMD
KCLL 261212Z 2612/2712 14003KT P6SM SCT110 BKN250
     FM261700 06007KT P6SM VCSH SCT050 BKN250
     FM262200 09010KT P6SM BKN050 BKN150
     FM270300 09004KT P6SM SCT050 BKN250=



000
FTUS44 KHGX 261120
TAFCLL
TAF
KCLL 261120Z 2612/2712 11003KT P6SM SCT040 BKN250
      TEMPO 2612/2613 6SM SHRA BR BKN030
     FM261700 06007KT P6SM VCSH SCT050 BKN250
     FM262200 09010KT P6SM BKN050 BKN150
     FM270300 09004KT P6SM SCT050 BKN250=



000
FTUS44 KHGX 261120
TAFLBX
TAF
KLBX 261120Z 2612/2712 36004KT P6SM SCT040 BKN150
     FM261500 04007KT P6SM VCSH BKN040 BKN150
      TEMPO 2616/2620 5SM -TSRA BR BKN040CB
     FM262200 07008KT P6SM BKN060 BKN150
     FM270300 04002KT P6SM SCT035 BKN150=



000
FTUS44 KHGX 261120
TAFSGR
TAF
KSGR 261120Z 2612/2712 01004KT P6SM FEW030 BKN250
     FM261500 07010KT P6SM VCSH BKN040 BKN100
      TEMPO 2616/2619 6SM -SHRA OVC040
     FM262100 08011KT P6SM BKN050 BKN150
     FM270300 09004KT P6SM SCT050 SCT150=



000
FTUS44 KHGX 261120
TAFUTS
TAF
KUTS 261120Z 2612/2712 11002KT P6SM FEW100 BKN250
     FM261600 10003KT P6SM VCSH SCT040 BKN250
     FM262100 07003KT P6SM BKN050 BKN150
     FM270300 00000KT P6SM SCT050 SCT250=



000
FTUS44 KHGX 261120
TAFHOU
TAF
KHOU 261120Z 2612/2712 04006KT P6SM FEW050 BKN250
     FM261500 07010KT P6SM VCSH BKN040 BKN100
      TEMPO 2616/2619 6SM -TSRA OVC040CB
     FM262100 08011KT P6SM BKN050 BKN150
     FM270300 09004KT P6SM SCT050 SCT150=



000
FTUS44 KHGX 261120
TAFIAH
TAF
KIAH 261120Z 2612/2718 03003KT P6SM FEW060 BKN250
     FM261500 07010KT P6SM VCSH BKN040 BKN100
      TEMPO 2616/2619 6SM -SHRA OVC040
     FM262100 08011KT P6SM BKN050 BKN150
     FM270300 09004KT P6SM SCT050 SCT150
     FM271600 06008KT P6SM SCT040 SCT250=



000
FTUS44 KHGX 261120
TAFGLS
TAF
KGLS 261120Z 2612/2712 03009KT P6SM SCT090 BKN250
     FM261400 04011KT 6SM -SHRA BR BKN040 BKN150
      TEMPO 2615/2619 5SM -TSRA BR BKN040CB
     FM262100 07011KT P6SM SCT035 BKN150
     FM270400 10008KT P6SM BKN250=



000
FTUS44 KHGX 261120
TAFCXO
TAF
KCXO 261120Z 2612/2712 VRB03KT P6SM SCT060 BKN250
     FM261600 05006KT P6SM VCSH BKN040 BKN150
     FM262100 06007KT P6SM BKN050 BKN250
     FM270300 00000KT P6SM SCT250=



000
FTUS44 KHGX 261120
TAFIAH
TAF
KIAH 261120Z 2612/2718 03003KT P6SM FEW060 BKN250
     FM261500 07010KT P6SM VCSH BKN040 BKN100
      TEMPO 2616/2619 6SM -SHRA OVC040
     FM262100 08011KT P6SM BKN050 BKN150
     FM270300 09004KT P6SM SCT050 SCT150
     FM271600 06008KT P6SM SCT040 SCT250=



000
FTUS44 KHGX 261120
TAFSGR
TAF
KSGR 261120Z 2612/2712 01004KT P6SM FEW030 BKN250
     FM261500 07010KT P6SM VCSH BKN040 BKN100
      TEMPO 2616/2619 6SM -SHRA OVC040
     FM262100 08011KT P6SM BKN050 BKN150
     FM270300 09004KT P6SM SCT050 SCT150=



000
FTUS44 KHGX 261120
TAFHOU
TAF
KHOU 261120Z 2612/2712 04006KT P6SM FEW050 BKN250
     FM261500 07010KT P6SM VCSH BKN040 BKN100
      TEMPO 2616/2619 6SM -TSRA OVC040CB
     FM262100 08011KT P6SM BKN050 BKN150
     FM270300 09004KT P6SM SCT050 SCT150=



000
FTUS44 KHGX 261120
TAFCLL
TAF
KCLL 261120Z 2612/2712 11003KT P6SM SCT040 BKN250
      TEMPO 2612/2613 6SM SHRA BR BKN030
     FM261700 06007KT P6SM VCSH SCT050 BKN250
     FM262200 09010KT P6SM BKN050 BKN150
     FM270300 09004KT P6SM SCT050 BKN250=



000
FTUS44 KHGX 261120
TAFLBX
TAF
KLBX 261120Z 2612/2712 36004KT P6SM SCT040 BKN150
     FM261500 04007KT P6SM VCSH BKN040 BKN150
      TEMPO 2616/2620 5SM -TSRA BR BKN040CB
     FM262200 07008KT P6SM BKN060 BKN150
     FM270300 04002KT P6SM SCT035 BKN150=



000
FTUS44 KHGX 261120
TAFCXO
TAF
KCXO 261120Z 2612/2712 VRB03KT P6SM SCT060 BKN250
     FM261600 05006KT P6SM VCSH BKN040 BKN150
     FM262100 06007KT P6SM BKN050 BKN250
     FM270300 00000KT P6SM SCT250=



000
FTUS44 KHGX 261120
TAFUTS
TAF
KUTS 261120Z 2612/2712 11002KT P6SM FEW100 BKN250
     FM261600 10003KT P6SM VCSH SCT040 BKN250
     FM262100 07003KT P6SM BKN050 BKN150
     FM270300 00000KT P6SM SCT050 SCT250=



000
FTUS44 KHGX 261120
TAFGLS
TAF
KGLS 261120Z 2612/2712 03009KT P6SM SCT090 BKN250
     FM261400 04011KT 6SM -SHRA BR BKN040 BKN150
      TEMPO 2615/2619 5SM -TSRA BR BKN040CB
     FM262100 07011KT P6SM SCT035 BKN150
     FM270400 10008KT P6SM BKN250=



000
FTUS44 KHGX 260958 AAA
TAFCLL
TAF AMD
KCLL 260958Z 2610/2706 15007KT P6SM SCT040 BKN250
      TEMPO 2611/2613 4SM SHRA BR BKN030
     FM261300 06007KT P6SM VCSH SCT035 BKN250
     FM262200 07007KT P6SM BKN050 BKN150
     FM270300 09004KT P6SM SCT050 BKN250=



000
FTUS44 KHGX 260958 AAA
TAFCLL
TAF AMD
KCLL 260958Z 2610/2706 15007KT P6SM SCT040 BKN250
      TEMPO 2611/2613 4SM SHRA BR BKN030
     FM261300 06007KT P6SM VCSH SCT035 BKN250
     FM262200 07007KT P6SM BKN050 BKN150
     FM270300 09004KT P6SM SCT050 BKN250=



000
FTUS44 KHGX 260904 AAA
TAFCXO
TAF AMD
KCXO 260904Z 2609/2706 00000KT P6SM SCT030 BKN250
     FM261800 05006KT P6SM VCSH BKN040 BKN150
     FM262100 06007KT P6SM BKN050 BKN250=



000
FTUS44 KHGX 260904 AAA
TAFCXO
TAF AMD
KCXO 260904Z 2609/2706 00000KT P6SM SCT030 BKN250
     FM261800 05006KT P6SM VCSH BKN040 BKN150
     FM262100 06007KT P6SM BKN050 BKN250=



000
FTUS44 KHGX 260903 AAA
TAFHOU
TAF AMD
KHOU 260903Z 2609/2706 35003KT P6SM SCT050 BKN250
     FM261500 05007KT P6SM VCSH BKN035 BKN100
      TEMPO 2618/2622 TSRA BKN030CB
     FM262200 07011KT P6SM BKN050 BKN250
     FM270400 VRB03KT P6SM SCT040 BKN250=



000
FTUS44 KHGX 260903 AAA
TAFHOU
TAF AMD
KHOU 260903Z 2609/2706 35003KT P6SM SCT050 BKN250
     FM261500 05007KT P6SM VCSH BKN035 BKN100
      TEMPO 2618/2622 TSRA BKN030CB
     FM262200 07011KT P6SM BKN050 BKN250
     FM270400 VRB03KT P6SM SCT040 BKN250=



000
FTUS44 KHGX 260901 AAA
TAFIAH
TAF AMD
KIAH 260901Z 2609/2712 05006KT P6SM BKN060 BKN100 BKN250
     FM261800 07010KT P6SM VCSH BKN035 BKN100 PROB30 2620/2622 6SM
      -TSRA BR BKN030CB
     FM262300 08011KT P6SM BKN050 BKN150
     FM270300 VRB04KT P6SM SCT050 BKN250=



000
FTUS44 KHGX 260901 AAA
TAFIAH
TAF AMD
KIAH 260901Z 2609/2712 05006KT P6SM BKN060 BKN100 BKN250
     FM261800 07010KT P6SM VCSH BKN035 BKN100 PROB30 2620/2622 6SM
      -TSRA BR BKN030CB
     FM262300 08011KT P6SM BKN050 BKN150
     FM270300 VRB04KT P6SM SCT050 BKN250=



000
FTUS44 KHGX 260520
TAFSGR
TAF
KSGR 260520Z 2606/2706 09004KT P6SM FEW070 SCT100 BKN250
     FM261000 VRB05KT P6SM VCSH SCT015 BKN035 BKN100
      TEMPO 2613/2617 TSRA BKN030CB
     FM261800 04007KT P6SM VCSH BKN040 BKN150
     FM262100 07011KT P6SM BKN050 BKN250
     FM270400 VRB03KT P6SM SCT040 BKN250=



000
FTUS44 KHGX 260520
TAFCLL
TAF
KCLL 260520Z 2606/2706 11005KT P6SM SCT070 BKN250
     FM261500 VRB03KT P6SM VCSH SCT035 BKN250
     FM262200 07007KT P6SM BKN050 BKN150
     FM270300 09004KT P6SM SCT050 BKN250=



000
FTUS44 KHGX 260520
TAFUTS
TAF
KUTS 260520Z 2606/2706 00000KT P6SM SCT070 BKN250
     FM261500 VRB03KT P6SM VCSH SCT035 BKN250
     FM262200 07003KT P6SM BKN050 BKN150
     FM270300 VRB03KT P6SM SCT050 BKN250=



000
FTUS44 KHGX 260520
TAFCXO
TAF
KCXO 260520Z 2606/2706 12005KT P6SM SKC
     FM260900 VRB05KT P6SM SCT015 BKN030 BKN100
     FM261800 05006KT P6SM VCSH BKN040 BKN150
     FM262100 06007KT P6SM BKN050 BKN250=



000
FTUS44 KHGX 260520
TAFLBX
TAF
KLBX 260520Z 2606/2706 VRB05KT P6SM SCT015 BKN040
     FM261100 VRB03KT P6SM -RA VCTS SCT020 BKN035CB BKN150
      TEMPO 2613/2617 TSRA
     FM261900 04007KT P6SM VCSH BKN040 BKN150
     FM262100 07008KT P6SM BKN060 BKN150
     FM270300 VRB03KT P6SM SCT035 BKN150=



000
FTUS44 KHGX 260520
TAFIAH
TAF
KIAH 260520Z 2606/2712 VRB04KT P6SM SCT070 BKN250
     FM261100 VRB05KT P6SM VCSH FEW015 BKN035 BKN100
     FM262100 08011KT P6SM BKN050 BKN150
     FM270300 VRB04KT P6SM SCT050 BKN250=



000
FTUS44 KHGX 260520
TAFSGR
TAF
KSGR 260520Z 2606/2706 09004KT P6SM FEW070 SCT100 BKN250
     FM261000 VRB05KT P6SM VCSH SCT015 BKN035 BKN100
      TEMPO 2613/2617 TSRA BKN030CB
     FM261800 04007KT P6SM VCSH BKN040 BKN150
     FM262100 07011KT P6SM BKN050 BKN250
     FM270400 VRB03KT P6SM SCT040 BKN250=



000
FTUS44 KHGX 260520
TAFHOU
TAF
KHOU 260520Z 2606/2706 09004KT P6SM FEW070 SCT100 BKN250
     FM261000 VRB05KT P6SM VCSH SCT015 BKN035 BKN100
      TEMPO 2613/2617 TSRA BKN030CB
     FM261800 04007KT P6SM VCSH BKN040 BKN150
     FM262100 07011KT P6SM BKN050 BKN250
     FM270400 VRB03KT P6SM SCT040 BKN250=



000
FTUS44 KHGX 260520
TAFGLS
TAF
KGLS 260520Z 2606/2706 11008KT P6SM SCT015 BKN040
     FM260900 07006KT P6SM -RA VCTS SCT015 BKN035CB
      TEMPO 2610/2614 TSRA
     FM261800 04009KT P6SM VCSH SCT035 BKN150
     FM262100 07011KT P6SM SCT035 BKN150
     FM270400 10008KT P6SM VCSH BKN250=



000
FTUS44 KHGX 260520
TAFIAH
TAF
KIAH 260520Z 2606/2712 VRB04KT P6SM SCT070 BKN250
     FM261100 VRB05KT P6SM VCSH FEW015 BKN035 BKN100
     FM262100 08011KT P6SM BKN050 BKN150
     FM270300 VRB04KT P6SM SCT050 BKN250=



000
FTUS44 KHGX 260520
TAFHOU
TAF
KHOU 260520Z 2606/2706 09004KT P6SM FEW070 SCT100 BKN250
     FM261000 VRB05KT P6SM VCSH SCT015 BKN035 BKN100
      TEMPO 2613/2617 TSRA BKN030CB
     FM261800 04007KT P6SM VCSH BKN040 BKN150
     FM262100 07011KT P6SM BKN050 BKN250
     FM270400 VRB03KT P6SM SCT040 BKN250=



000
FTUS44 KHGX 260520
TAFLBX
TAF
KLBX 260520Z 2606/2706 VRB05KT P6SM SCT015 BKN040
     FM261100 VRB03KT P6SM -RA VCTS SCT020 BKN035CB BKN150
      TEMPO 2613/2617 TSRA
     FM261900 04007KT P6SM VCSH BKN040 BKN150
     FM262100 07008KT P6SM BKN060 BKN150
     FM270300 VRB03KT P6SM SCT035 BKN150=



000
FTUS44 KHGX 260520
TAFGLS
TAF
KGLS 260520Z 2606/2706 11008KT P6SM SCT015 BKN040
     FM260900 07006KT P6SM -RA VCTS SCT015 BKN035CB
      TEMPO 2610/2614 TSRA
     FM261800 04009KT P6SM VCSH SCT035 BKN150
     FM262100 07011KT P6SM SCT035 BKN150
     FM270400 10008KT P6SM VCSH BKN250=



000
FTUS44 KHGX 260520
TAFCLL
TAF
KCLL 260520Z 2606/2706 11005KT P6SM SCT070 BKN250
     FM261500 VRB03KT P6SM VCSH SCT035 BKN250
     FM262200 07007KT P6SM BKN050 BKN150
     FM270300 09004KT P6SM SCT050 BKN250=



000
FTUS44 KHGX 260520
TAFUTS
TAF
KUTS 260520Z 2606/2706 00000KT P6SM SCT070 BKN250
     FM261500 VRB03KT P6SM VCSH SCT035 BKN250
     FM262200 07003KT P6SM BKN050 BKN150
     FM270300 VRB03KT P6SM SCT050 BKN250=



000
FTUS44 KHGX 260520
TAFCXO
TAF
KCXO 260520Z 2606/2706 12005KT P6SM SKC
     FM260900 VRB05KT P6SM SCT015 BKN030 BKN100
     FM261800 05006KT P6SM VCSH BKN040 BKN150
     FM262100 06007KT P6SM BKN050 BKN250=



000
FTUS44 KHGX 260309 AAB
TAFHOU
TAF AMD
KHOU 260309Z 2603/2624 09011G23KT P6SM FEW070 SCT100 BKN250
     FM260600 09002KT P6SM BKN050 BKN250
     FM260900 VRB05KT P6SM VCSH SCT015 BKN030 BKN100
     FM261800 06007KT P6SM VCSH BKN040 BKN150
     FM262100 08011KT P6SM BKN050 BKN250=



000
FTUS44 KHGX 260309 AAB
TAFHOU
TAF AMD
KHOU 260309Z 2603/2624 09011G23KT P6SM FEW070 SCT100 BKN250
     FM260600 09002KT P6SM BKN050 BKN250
     FM260900 VRB05KT P6SM VCSH SCT015 BKN030 BKN100
     FM261800 06007KT P6SM VCSH BKN040 BKN150
     FM262100 08011KT P6SM BKN050 BKN250=



000
FTUS44 KHGX 260308 AAB
TAFIAH
TAF AMD
KIAH 260308Z 2603/2706 11010KT P6SM FEW050 SCT100 BKN250
     FM260900 VRB05KT P6SM VCSH SCT015 BKN030 BKN100
     FM261800 06007KT P6SM VCSH BKN040 BKN150
     FM262100 08011KT P6SM BKN050 BKN250
     FM270300 13004KT P6SM SCT050 BKN250=



000
FTUS44 KHGX 260308 AAB
TAFIAH
TAF AMD
KIAH 260308Z 2603/2706 11010KT P6SM FEW050 SCT100 BKN250
     FM260900 VRB05KT P6SM VCSH SCT015 BKN030 BKN100
     FM261800 06007KT P6SM VCSH BKN040 BKN150
     FM262100 08011KT P6SM BKN050 BKN250
     FM270300 13004KT P6SM SCT050 BKN250=



000
FTUS44 KHGX 260238 AAB
TAFLBX
TAF AMD
KLBX 260238Z 2603/2624 16005KT P6SM SCT060 BKN250
      TEMPO 2603/2604 07030KT 4SM TSRA BKN035CB
     FM260500 VRB04KT P6SM VCSH SCT015 BKN030 BKN100
     FM261800 06007KT P6SM VCSH BKN040 BKN150
     FM262100 08011KT P6SM BKN050 BKN250=



000
FTUS44 KHGX 260238 AAB
TAFLBX
TAF AMD
KLBX 260238Z 2603/2624 16005KT P6SM SCT060 BKN250
      TEMPO 2603/2604 07030KT 4SM TSRA BKN035CB
     FM260500 VRB04KT P6SM VCSH SCT015 BKN030 BKN100
     FM261800 06007KT P6SM VCSH BKN040 BKN150
     FM262100 08011KT P6SM BKN050 BKN250=



000
FTUS44 KHGX 260203 AAA
TAFLBX
TAF AMD
KLBX 260203Z 2602/2624 16005KT P6SM SCT060 BKN250
      TEMPO 2602/2604 07025KT
     FM260500 VRB04KT P6SM VCSH SCT015 BKN030 BKN100
     FM261800 06007KT P6SM VCSH BKN040 BKN150
     FM262100 08011KT P6SM BKN050 BKN250=



000
FTUS44 KHGX 260203 AAA
TAFLBX
TAF AMD
KLBX 260203Z 2602/2624 16005KT P6SM SCT060 BKN250
      TEMPO 2602/2604 07025KT
     FM260500 VRB04KT P6SM VCSH SCT015 BKN030 BKN100
     FM261800 06007KT P6SM VCSH BKN040 BKN150
     FM262100 08011KT P6SM BKN050 BKN250=



000
FTUS44 KHGX 260202 AAA
TAFSGR
TAF AMD
KSGR 260202Z 2602/2624 VRB05KT P6SM SCT060 BKN250
      TEMPO 2602/2604 09025KT
     FM260600 09002KT P6SM BKN050 BKN250
     FM260900 VRB05KT P6SM VCSH SCT015 BKN030 BKN100
     FM261800 06007KT P6SM VCSH BKN040 BKN150
     FM262100 08011KT P6SM BKN050 BKN250=



000
FTUS44 KHGX 260202 AAA
TAFSGR
TAF AMD
KSGR 260202Z 2602/2624 VRB05KT P6SM SCT060 BKN250
      TEMPO 2602/2604 09025KT
     FM260600 09002KT P6SM BKN050 BKN250
     FM260900 VRB05KT P6SM VCSH SCT015 BKN030 BKN100
     FM261800 06007KT P6SM VCSH BKN040 BKN150
     FM262100 08011KT P6SM BKN050 BKN250=



000
FTUS44 KHGX 260149 AAA
TAFIAH
TAF AMD
KIAH 260149Z 2602/2706 10006KT P6SM VCTS SCT045CB BKN250
      TEMPO 2602/2603 09022KT
     FM260300 09002KT P6SM BKN050 BKN250
     FM260900 VRB05KT P6SM VCSH SCT015 BKN030 BKN100
     FM261800 06007KT P6SM VCSH BKN040 BKN150
     FM262100 08011KT P6SM BKN050 BKN250
     FM270300 13004KT P6SM SCT050 BKN250=



000
FTUS44 KHGX 260149 AAA
TAFIAH
TAF AMD
KIAH 260149Z 2602/2706 10006KT P6SM VCTS SCT045CB BKN250
      TEMPO 2602/2603 09022KT
     FM260300 09002KT P6SM BKN050 BKN250
     FM260900 VRB05KT P6SM VCSH SCT015 BKN030 BKN100
     FM261800 06007KT P6SM VCSH BKN040 BKN150
     FM262100 08011KT P6SM BKN050 BKN250
     FM270300 13004KT P6SM SCT050 BKN250=



000
FTUS44 KHGX 260132 AAA
TAFHOU
TAF AMD
KHOU 260132Z 2602/2624 07006KT P6SM VCSH SCT060 BKN250
      TEMPO 2602/2603 09030KT BKN040
     FM260600 09002KT P6SM BKN050 BKN250
     FM260900 VRB05KT P6SM VCSH SCT015 BKN030 BKN100
     FM261800 06007KT P6SM VCSH BKN040 BKN150
     FM262100 08011KT P6SM BKN050 BKN250=



000
FTUS44 KHGX 260132 AAA
TAFHOU
TAF AMD
KHOU 260132Z 2602/2624 07006KT P6SM VCSH SCT060 BKN250
      TEMPO 2602/2603 09030KT BKN040
     FM260600 09002KT P6SM BKN050 BKN250
     FM260900 VRB05KT P6SM VCSH SCT015 BKN030 BKN100
     FM261800 06007KT P6SM VCSH BKN040 BKN150
     FM262100 08011KT P6SM BKN050 BKN250=



000
FTUS44 KHGX 260129 AAA
TAFGLS
TAF AMD
KGLS 260129Z 2601/2624 16007KT P6SM VCTS SCT060CB BKN250
      TEMPO 2602/2603 07040KT 2SM TSRA BKN035CB
     FM260500 10004KT P6SM VCTS SCT015CB BKN030 BKN100
      TEMPO 2610/2614 TSRA
     FM261800 06011KT P6SM VCSH BKN040 BKN150
     FM262100 08011KT P6SM BKN050 BKN250=



000
FTUS44 KHGX 260129 AAA
TAFGLS
TAF AMD
KGLS 260129Z 2601/2624 16007KT P6SM VCTS SCT060CB BKN250
      TEMPO 2602/2603 07040KT 2SM TSRA BKN035CB
     FM260500 10004KT P6SM VCTS SCT015CB BKN030 BKN100
      TEMPO 2610/2614 TSRA
     FM261800 06011KT P6SM VCSH BKN040 BKN150
     FM262100 08011KT P6SM BKN050 BKN250=



000
FTUS44 KHGX 252331
TAFIAH
TAF
KIAH 252331Z 2600/2706 VRB05KT P6SM SCT060 BKN250
     FM260100 09002KT P6SM VCTS SCT050CB BKN250
     FM260300 09002KT P6SM BKN050 BKN250
     FM260900 VRB05KT P6SM VCSH SCT015 BKN030 BKN100
     FM261800 06007KT P6SM VCSH BKN040 BKN150
     FM262100 08011KT P6SM BKN050 BKN250
     FM270300 13004KT P6SM SCT050 BKN250=



000
FTUS44 KHGX 252331
TAFSGR
TAF
KSGR 252331Z 2600/2624 VRB05KT P6SM SCT060 BKN250
      TEMPO 2601/2603 TSRA BKN040CB
     FM260600 09002KT P6SM BKN050 BKN250
     FM260900 VRB05KT P6SM VCSH SCT015 BKN030 BKN100
     FM261800 06007KT P6SM VCSH BKN040 BKN150
     FM262100 08011KT P6SM BKN050 BKN250=



000
FTUS44 KHGX 252331
TAFCXO
TAF
KCXO 252331Z 2600/2624 00000KT P6SM SCT060 BKN250
     FM260900 VRB05KT P6SM SCT015 BKN030 BKN100
     FM261800 05006KT P6SM VCSH BKN040 BKN150
     FM262100 06007KT P6SM BKN050 BKN250=



000
FTUS44 KHGX 252331
TAFLBX
TAF
KLBX 252331Z 2600/2624 15008KT P6SM SCT060 BKN250
      TEMPO 2601/2603 TSRA BKN040CB
     FM260500 VRB04KT P6SM VCSH SCT015 BKN030 BKN100
     FM261800 06007KT P6SM VCSH BKN040 BKN150
     FM262100 08011KT P6SM BKN050 BKN250=



000
FTUS44 KHGX 252331
TAFGLS
TAF
KGLS 252331Z 2600/2624 13007KT P6SM SCT060 BKN250
      TEMPO 2601/2603 TSRA BKN040CB
     FM260500 10004KT P6SM VCTS SCT015CB BKN030 BKN100
      TEMPO 2610/2614 TSRA
     FM261800 06011KT P6SM VCSH BKN040 BKN150
     FM262100 08011KT P6SM BKN050 BKN250=



000
FTUS44 KHGX 252331
TAFHOU
TAF
KHOU 252331Z 2600/2624 VRB05KT P6SM SCT060 BKN250
      TEMPO 2601/2603 TSRA BKN040CB
     FM260600 09002KT P6SM BKN050 BKN250
     FM260900 VRB05KT P6SM VCSH SCT015 BKN030 BKN100
     FM261800 06007KT P6SM VCSH BKN040 BKN150
     FM262100 08011KT P6SM BKN050 BKN250=



000
FTUS44 KHGX 252331
TAFCLL
TAF
KCLL 252331Z 2600/2624 00000KT P6SM SKC
     FM260200 VRB02KT P6SM SCT060 BKN250
     FM261400 VRB03KT P6SM VCSH SCT040 BKN250
     FM262100 07007KT P6SM BKN060 BKN250=



000
FTUS44 KHGX 252331
TAFUTS
TAF
KUTS 252331Z 2600/2624 00000KT P6SM SKC
     FM260200 VRB02KT P6SM SCT060 BKN250
     FM261400 VRB03KT P6SM VCSH SCT040 BKN250
     FM262100 VRB03KT P6SM BKN060 BKN250=



000
FTUS44 KHGX 252331
TAFGLS
TAF
KGLS 252331Z 2600/2624 13007KT P6SM SCT060 BKN250
      TEMPO 2601/2603 TSRA BKN040CB
     FM260500 10004KT P6SM VCTS SCT015CB BKN030 BKN100
      TEMPO 2610/2614 TSRA
     FM261800 06011KT P6SM VCSH BKN040 BKN150
     FM262100 08011KT P6SM BKN050 BKN250=



000
FTUS44 KHGX 252331
TAFHOU
TAF
KHOU 252331Z 2600/2624 VRB05KT P6SM SCT060 BKN250
      TEMPO 2601/2603 TSRA BKN040CB
     FM260600 09002KT P6SM BKN050 BKN250
     FM260900 VRB05KT P6SM VCSH SCT015 BKN030 BKN100
     FM261800 06007KT P6SM VCSH BKN040 BKN150
     FM262100 08011KT P6SM BKN050 BKN250=



000
FTUS44 KHGX 252331
TAFCLL
TAF
KCLL 252331Z 2600/2624 00000KT P6SM SKC
     FM260200 VRB02KT P6SM SCT060 BKN250
     FM261400 VRB03KT P6SM VCSH SCT040 BKN250
     FM262100 07007KT P6SM BKN060 BKN250=



000
FTUS44 KHGX 252331
TAFSGR
TAF
KSGR 252331Z 2600/2624 VRB05KT P6SM SCT060 BKN250
      TEMPO 2601/2603 TSRA BKN040CB
     FM260600 09002KT P6SM BKN050 BKN250
     FM260900 VRB05KT P6SM VCSH SCT015 BKN030 BKN100
     FM261800 06007KT P6SM VCSH BKN040 BKN150
     FM262100 08011KT P6SM BKN050 BKN250=



000
FTUS44 KHGX 252331
TAFIAH
TAF
KIAH 252331Z 2600/2706 VRB05KT P6SM SCT060 BKN250
     FM260100 09002KT P6SM VCTS SCT050CB BKN250
     FM260300 09002KT P6SM BKN050 BKN250
     FM260900 VRB05KT P6SM VCSH SCT015 BKN030 BKN100
     FM261800 06007KT P6SM VCSH BKN040 BKN150
     FM262100 08011KT P6SM BKN050 BKN250
     FM270300 13004KT P6SM SCT050 BKN250=



000
FTUS44 KHGX 252331
TAFLBX
TAF
KLBX 252331Z 2600/2624 15008KT P6SM SCT060 BKN250
      TEMPO 2601/2603 TSRA BKN040CB
     FM260500 VRB04KT P6SM VCSH SCT015 BKN030 BKN100
     FM261800 06007KT P6SM VCSH BKN040 BKN150
     FM262100 08011KT P6SM BKN050 BKN250=



000
FTUS44 KHGX 252331
TAFCXO
TAF
KCXO 252331Z 2600/2624 00000KT P6SM SCT060 BKN250
     FM260900 VRB05KT P6SM SCT015 BKN030 BKN100
     FM261800 05006KT P6SM VCSH BKN040 BKN150
     FM262100 06007KT P6SM BKN050 BKN250=



000
FTUS44 KHGX 252331
TAFUTS
TAF
KUTS 252331Z 2600/2624 00000KT P6SM SKC
     FM260200 VRB02KT P6SM SCT060 BKN250
     FM261400 VRB03KT P6SM VCSH SCT040 BKN250
     FM262100 VRB03KT P6SM BKN060 BKN250=



000
FTUS44 KHGX 251731
TAFUTS
TAF
KUTS 251731Z 2518/2618 VRB04KT P6SM FEW040
     FM252000 VRB05KT P6SM FEW050
     FM260200 VRB02KT P6SM SCT060
     FM261400 10007KT P6SM VCSH SCT040 SCT250=



000
FTUS44 KHGX 251731
TAFUTS
TAF
KUTS 251731Z 2518/2618 VRB04KT P6SM FEW040
     FM252000 VRB05KT P6SM FEW050
     FM260200 VRB02KT P6SM SCT060
     FM261400 10007KT P6SM VCSH SCT040 SCT250=



000
FTUS44 KHGX 251731
TAFCLL
TAF
KCLL 251731Z 2518/2618 VRB03KT P6SM SCT250
     FM252100 VRB06KT P6SM FEW050
     FM260200 VRB04KT P6SM SCT060
     FM261400 10007KT P6SM VCSH SCT040 SCT250=



000
FTUS44 KHGX 251731
TAFCXO
TAF
KCXO 251731Z 2518/2618 VRB02KT P6SM FEW030 SCT250
     FM252300 10006KT P6SM BKN060
     FM260900 VRB05KT P6SM VCSH SCT015 SCT250
     FM261400 12006KT P6SM VCSH SCT040 SCT250=



000
FTUS44 KHGX 251731
TAFIAH
TAF
KIAH 251731Z 2518/2624 VRB06KT P6SM FEW030 SCT250
     FM252300 10006KT P6SM BKN060
     FM260900 VRB05KT P6SM VCSH SCT015
     FM261400 10006KT P6SM VCSH SCT050 SCT250 PROB30 2616/2620 -TSRA
      BKN040CB=



000
FTUS44 KHGX 251731
TAFIAH
TAF
KIAH 251731Z 2518/2624 VRB06KT P6SM FEW030 SCT250
     FM252300 10006KT P6SM BKN060
     FM260900 VRB05KT P6SM VCSH SCT015
     FM261400 10006KT P6SM VCSH SCT050 SCT250 PROB30 2616/2620 -TSRA
      BKN040CB=



000
FTUS44 KHGX 251731
TAFLBX
TAF
KLBX 251731Z 2518/2618 VRB06KT P6SM BKN040
     FM252200 14008KT P6SM SCT050 SCT250
     FM260200 VRB02KT P6SM FEW060 SCT250
     FM260500 VRB04KT P6SM VCSH SCT030 SCT250 PROB30 2614/2618 -TSRA
      BKN030CB=



000
FTUS44 KHGX 251731
TAFHOU
TAF
KHOU 251731Z 2518/2618 VRB05KT P6SM FEW030 SCT250
     FM252000 VRB05KT P6SM SCT050 SCT250
     FM260800 VRB05KT P6SM VCSH SCT020 BKN250
     FM261400 07007KT P6SM VCSH SCT040 BKN250 PROB30 2615/2618 -TSRA
      BKN040CB=



000
FTUS44 KHGX 251731
TAFHOU
TAF
KHOU 251731Z 2518/2618 VRB05KT P6SM FEW030 SCT250
     FM252000 VRB05KT P6SM SCT050 SCT250
     FM260800 VRB05KT P6SM VCSH SCT020 BKN250
     FM261400 07007KT P6SM VCSH SCT040 BKN250 PROB30 2615/2618 -TSRA
      BKN040CB=



000
FTUS44 KHGX 251731
TAFSGR
TAF
KSGR 251731Z 2518/2618 VRB03KT P6SM FEW030 SCT250
     FM260000 VRB02KT P6SM SCT050
     FM260800 VRB05KT P6SM VCSH SCT020 BKN250
     FM261400 07007KT P6SM VCSH SCT040 BKN250 PROB30 2615/2618 -TSRA
      BKN040CB=



000
FTUS44 KHGX 251731
TAFCXO
TAF
KCXO 251731Z 2518/2618 VRB02KT P6SM FEW030 SCT250
     FM252300 10006KT P6SM BKN060
     FM260900 VRB05KT P6SM VCSH SCT015 SCT250
     FM261400 12006KT P6SM VCSH SCT040 SCT250=



000
FTUS44 KHGX 251731
TAFSGR
TAF
KSGR 251731Z 2518/2618 VRB03KT P6SM FEW030 SCT250
     FM260000 VRB02KT P6SM SCT050
     FM260800 VRB05KT P6SM VCSH SCT020 BKN250
     FM261400 07007KT P6SM VCSH SCT040 BKN250 PROB30 2615/2618 -TSRA
      BKN040CB=



000
FTUS44 KHGX 251731
TAFLBX
TAF
KLBX 251731Z 2518/2618 VRB06KT P6SM BKN040
     FM252200 14008KT P6SM SCT050 SCT250
     FM260200 VRB02KT P6SM FEW060 SCT250
     FM260500 VRB04KT P6SM VCSH SCT030 SCT250 PROB30 2614/2618 -TSRA
      BKN030CB=



000
FTUS44 KHGX 251731
TAFGLS
TAF
KGLS 251731Z 2518/2618 VRB06KT P6SM SCT050 SCT250
     FM252100 14008KT P6SM FEW060 SCT250
     FM260500 09008KT P6SM VCSH SCT030 SCT250 PROB30 2614/2618 -TSRA
      BKN030CB=



000
FTUS44 KHGX 251731
TAFGLS
TAF
KGLS 251731Z 2518/2618 VRB06KT P6SM SCT050 SCT250
     FM252100 14008KT P6SM FEW060 SCT250
     FM260500 09008KT P6SM VCSH SCT030 SCT250 PROB30 2614/2618 -TSRA
      BKN030CB=



000
FTUS44 KHGX 251731
TAFCLL
TAF
KCLL 251731Z 2518/2618 VRB03KT P6SM SCT250
     FM252100 VRB06KT P6SM FEW050
     FM260200 VRB04KT P6SM SCT060
     FM261400 10007KT P6SM VCSH SCT040 SCT250=



    US Dept of Commerce
    National Oceanic and Atmospheric Administration
    National Weather Service
    1325 East West Highway
    Silver Spring, MD 20910
    Page Author: NWS Internet Services Team
Disclaimer
Information Quality
Credits
Glossary
Privacy Policy
Freedom of Information Act (FOIA)
About Us
Career Opportunities